Time;durP1;ratioP1;P1;durP2;ratioP2;P2;SDS_P1;SDS_P2;PMS_P1;PMS_P2;Temp;Humidity;BMP_temperature;BMP_pressure;BME280_temperature;BME280_humidity;BME280_pressure;Samples;Min_cycle;Max_cycle;Signal;HPM_P1;HPM_P2
2023/08/12 00:02:18;;;;;;;1.50;1.33;;;;;;;20.81;63.40;99123.72;5071727;28;41479;-82
2023/08/12 00:04:47;;;;;;;1.30;1.20;;;;;;;20.88;63.29;99146.34;5071738;28;44355;-82
2023/08/12 00:07:15;;;;;;;2.57;1.17;;;;;;;20.74;63.38;99128.03;5054417;28;41428;-83
2023/08/12 00:09:42;;;;;;;1.67;1.50;;;;;;;20.82;63.66;99141.56;5071324;28;40122;-82
2023/08/12 00:12:10;;;;;;;1.57;1.20;;;;;;;20.78;63.56;99140.19;5054614;28;41651;-83
2023/08/12 00:14:37;;;;;;;1.10;1.00;;;;;;;20.62;63.81;99121.19;5054191;28;41740;-83
2023/08/12 00:17:05;;;;;;;1.47;1.30;;;;;;;20.53;63.79;99106.78;5053717;28;42563;-83
2023/08/12 00:19:34;;;;;;;1.97;1.50;;;;;;;20.61;64.05;99125.75;5070212;28;38867;-83
2023/08/12 00:22:02;;;;;;;2.00;1.40;;;;;;;20.54;64.04;99115.72;5053639;28;40757;-84
2023/08/12 00:24:29;;;;;;;1.77;1.30;;;;;;;20.59;64.35;99127.72;5053326;28;43079;-84
2023/08/12 00:26:57;;;;;;;1.17;1.17;;;;;;;20.56;64.50;99119.09;5053489;28;41227;-84
2023/08/12 00:29:24;;;;;;;1.37;1.17;;;;;;;20.39;64.14;99092.06;5053292;28;39859;-82
2023/08/12 00:31:52;;;;;;;1.13;1.03;;;;;;;20.41;64.58;99100.78;5053219;28;41439;-84
2023/08/12 00:34:19;;;;;;;2.80;1.20;;;;;;;20.46;64.68;99102.19;5053180;28;41893;-83
2023/08/12 00:36:48;;;;;;;2.03;1.07;;;;;;;20.33;64.53;99075.63;5070138;28;40909;-83
2023/08/12 00:39:16;;;;;;;1.73;1.30;;;;;;;20.37;64.58;99088.66;5072845;28;39977;-83
2023/08/12 00:41:43;;;;;;;2.50;1.40;;;;;;;20.35;64.90;99079.91;5058029;28;42048;-83
2023/08/12 00:44:11;;;;;;;1.50;1.40;;;;;;;20.42;65.20;99099.78;5057671;28;43028;-83
2023/08/12 00:46:40;;;;;;;1.40;1.30;;;;;;;20.31;64.90;99086.53;5057910;28;40921;-83
2023/08/12 00:49:08;;;;;;;1.30;1.20;;;;;;;20.27;65.02;99077.09;5074342;28;40000;-83
2023/08/12 00:51:36;;;;;;;1.87;1.50;;;;;;;20.32;65.35;99090.91;5057578;28;40705;-83
2023/08/12 00:54:07;;;;;;;1.20;1.10;;;;;;;20.22;65.35;99071.31;5057905;28;41642;-84
2023/08/12 00:56:37;;;;;;;1.30;1.20;;;;;;;20.20;65.50;99069.78;5073962;28;42653;-82
2023/08/12 00:59:06;;;;;;;0.90;0.90;;;;;;;20.15;65.56;99064.88;5074028;28;41187;-84
2023/08/12 01:01:34;;;;;;;1.57;1.47;;;;;;;20.12;65.81;99058.94;5057448;28;40838;-83
2023/08/12 01:04:02;;;;;;;1.60;1.20;;;;;;;20.05;65.71;99067.59;5073989;28;42682;-82
2023/08/12 01:06:30;;;;;;;1.00;1.00;;;;;;;20.08;65.87;99078.06;5074177;28;41180;-83
2023/08/12 01:08:57;;;;;;;1.30;1.20;;;;;;;20.11;65.91;99076.06;5056352;28;39005;-84
2023/08/12 01:11:43;;;;;;;0.87;0.87;;;;;;;20.08;66.26;99074.50;5055184;28;40571;-84
2023/08/12 01:14:15;;;;;;;1.27;1.17;;;;;;;20.05;66.25;99075.66;5055690;28;41991;-82
2023/08/12 01:16:48;;;;;;;1.23;1.10;;;;;;;20.04;66.28;99075.81;5056534;28;41614;-82
2023/08/12 01:19:26;;;;;;;1.17;1.07;;;;;;;20.03;66.08;99068.72;5072162;28;41601;-82
2023/08/12 01:21:57;;;;;;;1.00;0.90;;;;;;;20.03;66.43;99063.34;5055551;28;41732;-83
2023/08/12 01:24:27;;;;;;;1.50;1.30;;;;;;;20.04;66.48;99054.28;5055838;28;41776;-83
2023/08/12 01:26:55;;;;;;;1.10;1.00;;;;;;;20.05;66.65;99055.97;5055656;28;42333;-82
2023/08/12 01:29:23;;;;;;;1.30;1.20;;;;;;;20.05;66.45;99055.97;5089310;28;40129;-83
2023/08/12 01:31:56;;;;;;;1.20;1.10;;;;;;;19.95;66.71;99039.06;5055886;28;41024;-83
2023/08/12 01:34:33;;;;;;;1.73;1.63;;;;;;;19.95;66.58;99041.75;5071902;28;42863;-83
2023/08/12 01:37:05;;;;;;;1.20;1.10;;;;;;;19.94;66.78;99037.38;5069673;28;43051;-83
2023/08/12 01:39:36;;;;;;;1.47;1.10;;;;;;;19.96;66.68;99048.84;5055970;28;40317;-83
2023/08/12 01:42:04;;;;;;;1.67;1.57;;;;;;;19.96;66.41;99040.75;5056870;28;40574;-83
2023/08/12 01:44:32;;;;;;;1.87;1.20;;;;;;;19.90;66.42;99030.63;5073211;28;42669;-83
2023/08/12 01:47:01;;;;;;;1.40;1.30;;;;;;;19.88;66.67;99027.25;5073248;28;43062;-83
2023/08/12 01:49:28;;;;;;;1.53;1.30;;;;;;;19.97;66.59;99045.16;5055395;28;41430;-81
2023/08/12 01:51:56;;;;;;;1.43;0.97;;;;;;;19.92;66.32;99039.38;5074194;28;41838;-83
2023/08/12 01:54:24;;;;;;;1.50;1.23;;;;;;;19.94;66.47;99050.81;5056271;28;41783;-83
2023/08/12 01:56:54;;;;;;;1.17;1.00;;;;;;;19.89;66.61;99031.63;5056339;28;42361;-83
2023/08/12 01:59:21;;;;;;;1.37;1.27;;;;;;;19.90;67.00;99031.47;5056331;28;38805;-82
2023/08/12 02:01:49;;;;;;;1.33;1.23;;;;;;;19.80;66.95;99013.69;5073620;28;41713;-83
2023/08/12 02:04:16;;;;;;;1.27;1.17;;;;;;;19.74;66.92;98999.03;5073196;28;42933;-83
2023/08/12 02:06:44;;;;;;;1.40;1.30;;;;;;;19.90;67.14;99041.38;5073368;28;42088;-83
2023/08/12 02:09:12;;;;;;;1.30;1.20;;;;;;;19.79;67.10;99014.69;5072650;28;39754;-83
2023/08/12 02:11:39;;;;;;;1.37;1.27;;;;;;;19.89;67.32;99039.69;5054204;28;41214;-83
2023/08/12 02:14:09;;;;;;;1.63;1.30;;;;;;;19.87;67.62;99041.69;5055069;28;41673;-83
2023/08/12 02:16:36;;;;;;;1.40;1.30;;;;;;;19.78;67.36;99023.78;5071910;28;43258;-83
2023/08/12 02:19:04;;;;;;;1.63;1.53;;;;;;;19.84;67.69;99031.22;5038154;28;38972;-83
2023/08/12 02:21:32;;;;;;;1.60;1.30;;;;;;;19.77;67.58;99019.38;5054996;28;41841;-83
2023/08/12 02:24:01;;;;;;;1.53;1.37;;;;;;;19.86;67.78;99030.06;5071621;28;42387;-83
2023/08/12 02:26:29;;;;;;;1.77;1.50;;;;;;;19.80;69.16;99013.69;5054999;28;41165;-83
2023/08/12 02:28:56;;;;;;;1.50;1.30;;;;;;;19.84;69.05;99015.09;5054904;28;39097;-83
2023/08/12 02:31:26;;;;;;;1.57;1.47;;;;;;;19.92;68.91;99023.25;5054808;28;40867;-83
2023/08/12 02:33:53;;;;;;;1.50;1.40;;;;;;;19.83;68.90;99002.66;5071549;28;43733;-83
2023/08/12 02:36:21;;;;;;;1.90;1.70;;;;;;;19.84;69.07;98998.97;5054555;28;41759;-83
2023/08/12 02:38:49;;;;;;;2.47;1.50;;;;;;;19.88;68.91;99003.06;5071679;28;41059;-83
2023/08/12 02:41:16;;;;;;;1.90;1.53;;;;;;;19.89;69.01;99002.06;5055579;28;40357;-83
2023/08/12 02:43:44;;;;;;;1.40;1.30;;;;;;;19.85;68.95;99000.66;5055812;28;42845;-83
2023/08/12 02:46:12;;;;;;;3.30;1.60;;;;;;;19.98;69.14;99015.44;5072819;28;42423;-83
2023/08/12 02:48:42;;;;;;;1.20;1.10;;;;;;;19.80;69.22;98984.97;5055373;28;39985;-83
2023/08/12 02:51:10;;;;;;;2.83;1.53;;;;;;;19.96;69.55;99003.13;5089266;28;41611;-83
2023/08/12 02:53:38;;;;;;;2.23;1.63;;;;;;;19.94;70.11;98999.75;5071985;28;43636;-83
2023/08/12 02:56:05;;;;;;;1.40;1.30;;;;;;;19.88;69.72;98986.94;5055625;28;41351;-83
2023/08/12 02:58:34;;;;;;;2.30;1.37;;;;;;;19.93;70.17;98992.69;5055575;28;38551;-82
2023/08/12 03:01:03;;;;;;;1.40;1.30;;;;;;;20.03;69.98;99012.25;5055004;28;41269;-83
2023/08/12 03:03:31;;;;;;;1.47;1.37;;;;;;;19.98;69.73;99006.53;5054907;28;42574;-83
2023/08/12 03:06:00;;;;;;;2.10;1.40;;;;;;;20.02;69.54;99013.28;5072405;28;43261;-82
2023/08/12 03:08:29;;;;;;;1.57;1.30;;;;;;;19.98;69.42;99010.06;5055341;28;39176;-83
2023/08/12 03:11:01;;;;;;;1.70;1.50;;;;;;;19.99;69.82;99009.06;5053940;28;40402;-83
2023/08/12 03:13:29;;;;;;;1.43;1.33;;;;;;;19.87;69.65;98993.28;5054907;28;41625;-83
2023/08/12 03:15:57;;;;;;;1.40;1.27;;;;;;;19.94;69.68;99010.50;5054222;28;41378;-83
2023/08/12 03:18:24;;;;;;;1.53;1.20;;;;;;;19.96;69.76;99012.03;5070668;28;39999;-83
2023/08/12 03:20:52;;;;;;;1.63;1.17;;;;;;;19.88;69.90;99000.38;5071023;28;42688;-83
2023/08/12 03:23:23;;;;;;;2.37;1.30;;;;;;;19.80;69.80;98993.03;5053848;28;41379;-83
2023/08/12 03:25:51;;;;;;;1.30;1.20;;;;;;;19.85;69.97;99000.66;5053789;28;41334;-84
2023/08/12 03:28:19;;;;;;;1.97;1.57;;;;;;;19.77;69.79;98993.38;5053959;28;39293;-84
2023/08/12 03:30:51;;;;;;;1.47;1.37;;;;;;;19.70;70.10;98986.88;5053811;28;40329;-84
2023/08/12 03:33:21;;;;;;;1.80;1.70;;;;;;;19.91;69.87;99026.91;5070684;28;43308;-84
2023/08/12 03:35:50;;;;;;;2.17;1.57;;;;;;;19.84;69.88;99015.94;5070771;28;43187;-83
2023/08/12 03:38:18;;;;;;;1.63;1.30;;;;;;;19.83;70.01;99011.56;5053657;28;38950;-84
2023/08/12 03:40:48;;;;;;;1.70;1.60;;;;;;;19.92;70.74;99034.84;5054669;28;40458;-83
2023/08/12 03:43:18;;;;;;;1.97;1.67;;;;;;;19.84;71.14;99026.69;5069558;28;43087;-83
2023/08/12 03:45:48;;;;;;;1.53;1.43;;;;;;;19.82;71.12;99011.69;5072094;28;43162;-83
2023/08/12 03:48:19;;;;;;;2.00;1.87;;;;;;;19.85;72.20;99011.41;5055121;28;40013;-83
2023/08/12 03:50:47;;;;;;;2.10;1.87;;;;;;;19.84;73.47;98994.44;5071573;28;41812;-84
2023/08/12 03:53:16;;;;;;;3.80;1.90;;;;;;;19.93;77.05;98993.53;5053714;28;41890;-83
2023/08/12 03:55:44;;;;;;;2.33;1.90;;;;;;;19.82;78.35;98979.44;5054569;28;42414;-84
2023/08/12 03:58:15;;;;;;;3.00;2.20;;;;;;;19.90;77.87;98999.22;5071178;28;40186;-82
2023/08/12 04:00:43;;;;;;;3.03;1.90;;;;;;;19.79;77.50;98979.75;5054782;28;40417;-84
2023/08/12 04:03:12;;;;;;;3.50;2.60;;;;;;;19.95;77.28;99001.44;5054646;28;43080;-84
2023/08/12 04:05:48;;;;;;;2.20;2.00;;;;;;;19.98;76.99;98985.00;5071663;28;42027;-82
2023/08/12 04:08:16;;;;;;;2.17;1.97;;;;;;;19.79;79.03;98964.47;5054452;28;39285;-83
2023/08/12 04:10:46;;;;;;;2.47;2.27;;;;;;;19.85;78.99;98984.53;5052545;28;41112;-82
2023/08/12 04:13:16;;;;;;;2.30;2.10;;;;;;;19.79;78.99;98979.75;5054323;28;41575;-83
2023/08/12 04:15:44;;;;;;;2.93;2.60;;;;;;;19.74;79.79;98966.78;5073275;28;42518;-83
2023/08/12 04:18:11;;;;;;;2.87;1.90;;;;;;;19.54;79.14;98933.78;5073505;28;40882;-83
2023/08/12 04:20:40;;;;;;;3.17;1.90;;;;;;;19.92;78.52;98982.91;5107542;28;41781;-83
2023/08/12 04:23:07;;;;;;;2.00;1.90;;;;;;;19.88;77.70;98984.25;5056530;28;43126;-82
2023/08/12 04:25:36;;;;;;;2.10;1.83;;;;;;;19.93;77.69;98992.69;5073493;28;43258;-82
2023/08/12 04:28:05;;;;;;;4.03;2.10;;;;;;;20.01;77.58;99000.84;5073500;28;40737;-82
2023/08/12 04:30:36;;;;;;;2.23;1.80;;;;;;;20.00;77.26;98986.56;5056832;28;43582;-82
2023/08/12 04:33:05;;;;;;;2.90;1.93;;;;;;;19.98;77.51;98974.25;5056074;28;41890;-81
2023/08/12 04:35:33;;;;;;;1.67;1.57;;;;;;;20.07;77.15;98993.00;5056806;28;41077;-81
2023/08/12 04:38:02;;;;;;;2.47;1.90;;;;;;;20.09;77.39;98998.22;5056429;28;38580;-82
2023/08/12 04:40:29;;;;;;;2.37;1.53;;;;;;;20.00;77.50;98983.03;5074951;28;42795;-82
2023/08/12 04:42:57;;;;;;;3.80;1.93;;;;;;;20.11;77.49;98996.25;5057281;28;42055;-82
2023/08/12 04:45:25;;;;;;;2.80;1.87;;;;;;;20.10;77.09;98983.78;5057587;28;42192;-82
2023/08/12 04:47:56;;;;;;;3.77;2.10;;;;;;;20.03;76.99;98966.56;5057252;28;38729;-82
2023/08/12 04:50:24;;;;;;;2.37;1.57;;;;;;;20.16;77.32;98980.47;5058127;28;41099;-82
2023/08/12 04:52:52;;;;;;;2.10;1.70;;;;;;;20.28;77.17;98998.06;5073578;28;42971;-82
2023/08/12 04:55:20;;;;;;;3.53;2.07;;;;;;;20.32;77.24;98993.25;5057456;28;42813;-83
2023/08/12 04:57:48;;;;;;;1.77;1.67;;;;;;;20.26;76.92;98966.97;5057269;28;38975;-82
2023/08/12 05:00:17;;;;;;;1.60;1.50;;;;;;;20.45;76.75;98988.34;5057728;28;40401;-83
2023/08/12 05:02:45;;;;;;;3.40;2.00;;;;;;;20.54;76.28;98986.56;5057114;28;41707;-81
2023/08/12 05:05:15;;;;;;;1.90;1.43;;;;;;;20.62;76.11;98989.34;5057036;28;41585;-82
2023/08/12 05:07:44;;;;;;;1.77;1.67;;;;;;;20.71;76.10;98989.22;5057105;28;40886;-83
2023/08/12 05:10:12;;;;;;;2.37;1.80;;;;;;;20.81;76.24;98989.13;5072278;28;41682;-82
2023/08/12 05:12:40;;;;;;;1.90;1.80;;;;;;;20.81;75.99;98975.66;5072461;28;42641;-82
2023/08/12 05:15:09;;;;;;;1.90;1.60;;;;;;;20.96;75.59;98998.34;5055771;28;41521;-82
2023/08/12 05:17:36;;;;;;;2.00;1.80;;;;;;;21.04;76.25;98995.69;5072793;28;40995;-83
2023/08/12 05:20:05;;;;;;;1.30;1.20;;;;;;;21.05;76.44;98997.38;5072898;28;41506;-82
2023/08/12 05:22:35;;;;;;;1.83;1.40;;;;;;;21.08;76.59;99002.44;5055793;28;42867;-82
2023/08/12 05:25:02;;;;;;;2.30;1.90;;;;;;;21.13;76.35;99010.91;5072705;28;42213;-82
2023/08/12 05:27:31;;;;;;;2.80;2.27;;;;;;;21.11;76.32;99018.28;5055495;28;38539;-82
2023/08/12 05:29:58;;;;;;;3.33;2.27;;;;;;;21.10;76.69;99029.22;5055429;28;41162;-81
2023/08/12 05:32:26;;;;;;;2.20;2.00;;;;;;;21.04;76.48;99025.31;5055518;28;41634;-82
2023/08/12 05:34:54;;;;;;;3.13;2.23;;;;;;;21.02;76.47;99024.59;5055983;28;41704;-82
2023/08/12 05:37:21;;;;;;;2.97;2.47;;;;;;;20.98;76.40;99014.34;5055749;28;38805;-83
2023/08/12 05:39:50;;;;;;;1.87;1.77;;;;;;;21.03;76.59;99012.00;5055930;28;40994;-81
2023/08/12 05:42:18;;;;;;;1.93;1.77;;;;;;;20.87;76.74;98971.53;5073316;28;41563;-81
2023/08/12 05:44:46;;;;;;;1.90;1.70;;;;;;;20.96;77.39;98975.94;5056498;28;41332;-81
2023/08/12 05:47:13;;;;;;;2.30;1.87;;;;;;;21.09;76.64;98997.91;5074076;28;39308;-81
2023/08/12 05:49:42;;;;;;;2.23;1.97;;;;;;;21.09;77.45;98976.38;5074677;28;41657;-82
2023/08/12 05:52:09;;;;;;;2.87;2.03;;;;;;;21.13;77.22;98967.81;5073013;28;41834;-82
2023/08/12 05:54:37;;;;;;;3.97;2.33;;;;;;;21.28;77.15;98988.78;5073014;28;42246;-82
2023/08/12 05:57:06;;;;;;;2.67;2.13;;;;;;;21.34;76.78;99007.00;5056537;28;39582;-82
2023/08/12 05:59:34;;;;;;;2.10;1.87;;;;;;;21.23;76.62;98988.44;5073976;28;41783;-82
2023/08/12 06:02:01;;;;;;;2.07;1.77;;;;;;;21.26;76.55;98993.50;5073163;28;41752;-82
2023/08/12 06:04:29;;;;;;;1.77;1.60;;;;;;;21.51;75.98;99022.25;5072943;28;43198;-82
2023/08/12 06:06:57;;;;;;;1.93;1.73;;;;;;;21.56;75.74;99011.81;5072983;28;40088;-83
2023/08/12 06:09:24;;;;;;;2.23;2.03;;;;;;;21.65;75.65;99010.84;5055180;28;41110;-83
2023/08/12 06:11:52;;;;;;;2.17;2.00;;;;;;;21.83;75.26;99008.91;5054457;28;43139;-83
2023/08/12 06:14:21;;;;;;;2.03;1.83;;;;;;;21.95;75.15;99014.84;5071658;28;42298;-82
2023/08/12 06:16:49;;;;;;;2.00;1.80;;;;;;;21.98;74.68;99002.88;5054824;28;39545;-83
2023/08/12 06:19:17;;;;;;;2.80;2.13;;;;;;;22.01;74.59;99010.66;5071227;28;41166;-83
2023/08/12 06:21:44;;;;;;;2.07;1.87;;;;;;;22.08;74.74;99006.31;5054895;28;41669;-83
2023/08/12 06:24:12;;;;;;;3.00;2.00;;;;;;;22.03;74.54;98992.47;5071571;28;40941;-82
2023/08/12 06:26:39;;;;;;;2.20;2.00;;;;;;;22.14;74.33;99000.22;5071985;28;40757;-83
2023/08/12 06:29:07;;;;;;;2.40;1.90;;;;;;;22.22;74.32;99002.97;5071712;28;41455;-82
2023/08/12 06:31:36;;;;;;;2.03;1.63;;;;;;;22.23;74.55;98991.16;5054789;28;43116;-83
2023/08/12 06:34:04;;;;;;;2.90;1.90;;;;;;;22.35;74.21;98989.00;5070986;28;42491;-83
2023/08/12 06:36:32;;;;;;;3.80;1.73;;;;;;;22.56;74.11;99000.97;5087644;28;40096;-83
2023/08/12 06:39:00;;;;;;;2.47;2.27;;;;;;;22.70;73.79;98980.56;5054072;28;41112;-83
2023/08/12 06:41:27;;;;;;;2.23;2.00;;;;;;;22.97;73.36;98987.47;5055639;28;43289;-83
2023/08/12 06:43:55;;;;;;;2.67;2.00;;;;;;;23.32;72.39;99009.69;5071739;28;42676;-82
2023/08/12 06:46:22;;;;;;;2.97;2.70;;;;;;;23.47;71.22;99016.06;5056081;28;40097;-83
2023/08/12 06:48:51;;;;;;;2.13;1.93;;;;;;;23.49;71.05;99003.22;5055524;28;40486;-83
2023/08/12 06:51:19;;;;;;;3.37;2.67;;;;;;;23.55;70.58;99002.53;5072415;28;42910;-83
2023/08/12 06:53:46;;;;;;;2.20;1.93;;;;;;;23.68;70.49;99002.00;5055260;28;41002;-83
2023/08/12 06:56:14;;;;;;;2.50;2.30;;;;;;;24.02;70.24;99015.16;5055651;28;40147;-84
2023/08/12 06:58:41;;;;;;;2.67;2.47;;;;;;;24.26;69.58;99018.59;5071986;28;40705;-84
2023/08/12 07:01:09;;;;;;;2.83;2.20;;;;;;;24.46;68.96;99018.16;5055325;28;41677;-83
2023/08/12 07:03:37;;;;;;;2.03;1.83;;;;;;;24.59;68.50;99019.25;5072449;28;43488;-83
2023/08/12 07:06:06;;;;;;;2.33;2.13;;;;;;;24.69;67.69;99014.41;5055905;28;39202;-83
2023/08/12 07:08:33;;;;;;;4.60;2.43;;;;;;;24.83;66.70;99009.22;5054504;28;40810;-83
2023/08/12 07:11:01;;;;;;;2.90;2.20;;;;;;;25.10;65.54;99030.31;5070065;28;41601;-84
2023/08/12 07:13:29;;;;;;;3.17;2.57;;;;;;;25.25;64.63;99033.88;5053807;28;40953;-84
2023/08/12 07:15:56;;;;;;;3.20;2.20;;;;;;;25.26;64.08;99026.59;5071161;28;40108;-84
2023/08/12 07:18:24;;;;;;;2.57;2.37;;;;;;;25.33;63.77;99016.72;5070579;28;41666;-83
2023/08/12 07:20:51;;;;;;;2.33;2.13;;;;;;;25.47;63.69;99013.13;5054028;28;42044;-84
2023/08/12 07:23:21;;;;;;;2.57;2.37;;;;;;;25.62;62.67;99027.59;5071620;28;42218;-83
2023/08/12 07:25:48;;;;;;;2.80;2.23;;;;;;;25.67;62.51;99024.31;5087605;28;39411;-83
2023/08/12 07:28:16;;;;;;;2.20;2.00;;;;;;;25.76;62.32;99023.19;5054150;28;40591;-84
2023/08/12 07:30:43;;;;;;;2.33;2.00;;;;;;;25.98;62.60;99041.19;5071075;28;43811;-84
2023/08/12 07:33:11;;;;;;;2.37;2.10;;;;;;;26.04;62.45;99021.47;5070450;28;42310;-84
2023/08/12 07:35:39;;;;;;;2.50;2.10;;;;;;;26.24;62.28;99020.84;5071081;28;41479;-84
2023/08/12 07:38:06;;;;;;;3.77;2.17;;;;;;;26.29;61.87;99013.00;5053856;28;40636;-84
2023/08/12 07:40:35;;;;;;;2.73;2.03;;;;;;;26.29;61.65;99004.84;5071144;28;42977;-84
2023/08/12 07:43:03;;;;;;;2.33;2.13;;;;;;;26.41;61.19;99006.88;5054805;28;41129;-83
2023/08/12 07:45:31;;;;;;;2.33;2.07;;;;;;;26.72;60.60;99011.94;5055220;28;39043;-84
2023/08/12 07:47:58;;;;;;;2.60;2.37;;;;;;;27.11;59.01;99037.81;5072048;28;40930;-84
2023/08/12 07:50:26;;;;;;;2.10;1.90;;;;;;;27.35;59.01;99026.50;5058644;28;42826;-84
2023/08/12 07:52:53;;;;;;;2.20;2.00;;;;;;;27.57;57.88;99023.75;5057744;28;41279;-83
2023/08/12 07:55:21;;;;;;;2.30;2.10;;;;;;;27.60;57.36;99028.78;5058337;28;39612;-84
2023/08/12 07:57:50;;;;;;;2.23;2.07;;;;;;;27.79;56.88;99030.78;5056128;28;40925;-84
2023/08/12 08:00:19;;;;;;;2.70;1.90;;;;;;;28.03;56.35;99043.88;5057435;28;42657;-84
2023/08/12 08:02:46;;;;;;;2.20;2.00;;;;;;;28.18;56.04;99032.88;5057205;28;41286;-84
2023/08/12 08:05:14;;;;;;;2.33;2.17;;;;;;;28.39;55.79;99049.06;5057348;28;39115;-85
2023/08/12 08:07:41;;;;;;;2.43;2.00;;;;;;;28.33;54.67;99035.41;5056671;28;43952;-85
2023/08/12 08:10:10;;;;;;;2.10;2.00;;;;;;;28.22;54.46;99040.41;5073562;28;42051;-85
2023/08/12 08:12:40;;;;;;;3.03;2.07;;;;;;;28.21;53.89;99037.88;5073431;28;42015;-84
2023/08/12 08:15:10;;;;;;;3.27;2.53;;;;;;;28.19;54.10;99034.50;5073861;28;39905;-84
2023/08/12 08:17:37;;;;;;;2.40;2.20;;;;;;;28.25;53.90;99031.00;5056712;28;42284;-85
2023/08/12 08:20:06;;;;;;;3.23;2.30;;;;;;;28.37;54.60;99032.06;5056731;28;41921;-85
2023/08/12 08:22:33;;;;;;;2.57;2.30;;;;;;;28.51;55.20;99038.41;5056360;28;41803;-84
2023/08/12 08:25:01;;;;;;;2.70;2.50;;;;;;;28.59;53.42;99035.47;5056672;28;41019;-85
2023/08/12 08:27:29;;;;;;;2.33;2.13;;;;;;;28.81;53.20;99027.97;5056387;28;41921;-85
2023/08/12 08:29:56;;;;;;;2.70;2.50;;;;;;;29.23;50.82;99043.94;5056811;28;41949;-84
2023/08/12 08:32:25;;;;;;;2.97;2.67;;;;;;;29.80;49.05;99060.63;5056312;28;41118;-85
2023/08/12 08:34:53;;;;;;;2.63;2.43;;;;;;;30.68;48.02;99048.09;5056523;28;39074;-85
2023/08/12 08:37:21;;;;;;;2.60;2.40;;;;;;;31.63;45.37;99060.59;5056679;28;41217;-86
2023/08/12 08:39:48;;;;;;;2.57;2.37;;;;;;;32.68;44.81;99057.66;5056826;28;41758;-85
2023/08/12 08:42:18;;;;;;;2.50;2.27;;;;;;;33.46;42.65;99068.47;5057625;28;42822;-85
2023/08/12 08:44:46;;;;;;;2.33;2.13;;;;;;;33.51;42.35;99071.31;5074365;28;40827;-85
2023/08/12 08:47:17;;;;;;;4.37;2.47;;;;;;;33.63;41.81;99063.91;5057153;28;40713;-85
2023/08/12 08:49:47;;;;;;;2.13;1.93;;;;;;;33.41;42.40;99071.09;5057392;28;41858;-85
2023/08/12 08:52:18;;;;;;;2.20;2.10;;;;;;;33.26;42.78;99057.00;5090759;28;42228;-85
2023/08/12 08:54:46;;;;;;;2.67;2.10;;;;;;;33.28;41.78;99060.34;5057634;28;39797;-86
2023/08/12 08:57:14;;;;;;;3.13;2.60;;;;;;;33.75;42.77;99070.31;5057900;28;40475;-85
2023/08/12 08:59:41;;;;;;;2.57;2.37;;;;;;;34.51;40.15;99077.41;5075603;28;42481;-85
2023/08/12 09:02:14;;;;;;;2.43;2.23;;;;;;;35.05;40.32;99083.41;5091446;28;40863;-86
2023/08/12 09:04:42;;;;;;;3.63;2.40;;;;;;;34.77;39.26;99088.94;5074250;28;41574;-85
2023/08/12 09:07:13;;;;;;;2.47;2.27;;;;;;;34.71;39.10;99079.72;5057436;28;41535;-85
2023/08/12 09:09:45;;;;;;;2.30;2.10;;;;;;;34.67;39.12;99061.19;5056112;28;43007;-86
2023/08/12 09:12:15;;;;;;;2.70;2.30;;;;;;;34.70;38.47;99086.31;5055869;28;41299;-86
2023/08/12 09:14:43;;;;;;;2.33;2.13;;;;;;;34.71;39.46;99082.47;5055904;28;40138;-86
2023/08/12 09:17:11;;;;;;;2.67;2.47;;;;;;;34.65;38.57;99077.94;5055840;28;40868;-86
2023/08/12 09:19:39;;;;;;;2.37;2.17;;;;;;;34.75;39.94;99074.53;5055641;28;41899;-86
2023/08/12 09:22:10;;;;;;;2.53;2.33;;;;;;;34.65;40.20;99066.09;5056095;28;41554;-86
2023/08/12 09:24:39;;;;;;;2.40;2.20;;;;;;;34.43;41.20;99064.06;5056047;28;40476;-84
2023/08/12 09:27:06;;;;;;;2.27;2.00;;;;;;;34.07;42.34;99067.97;5055799;28;40714;-85
2023/08/12 09:29:35;;;;;;;2.13;1.93;;;;;;;33.25;44.41;99038.88;5055527;28;41474;-85
2023/08/12 09:32:07;;;;;;;2.43;2.23;;;;;;;32.59;46.48;99061.78;5072580;28;42338;-86
2023/08/12 09:34:36;;;;;;;2.73;2.23;;;;;;;32.26;48.33;99035.69;5055530;28;38863;-86
2023/08/12 09:37:03;;;;;;;2.50;2.30;;;;;;;32.75;47.41;99000.81;5072254;28;40482;-85
2023/08/12 09:39:31;;;;;;;2.67;2.47;;;;;;;33.22;45.34;99053.03;5072218;28;41711;-85
2023/08/12 09:42:01;;;;;;;2.50;2.10;;;;;;;33.14;44.63;99060.53;5057148;28;42374;-85
2023/08/12 09:44:28;;;;;;;2.63;2.27;;;;;;;32.87;45.13;99048.31;5066652;28;39256;-85
2023/08/12 09:46:59;;;;;;;2.53;2.33;;;;;;;32.09;47.53;98990.75;5062349;28;40683;-85
2023/08/12 09:49:27;;;;;;;2.53;2.30;;;;;;;31.73;49.04;99022.59;5056746;28;42926;-86
2023/08/12 09:51:55;;;;;;;2.63;2.43;;;;;;;31.31;51.58;98998.78;5055546;28;41253;-86
2023/08/12 09:54:26;;;;;;;2.40;2.20;;;;;;;31.01;51.07;99004.94;5056539;28;39201;-86
2023/08/12 09:56:58;;;;;;;2.47;2.27;;;;;;;30.82;52.49;98995.00;5056779;28;40828;-86
2023/08/12 09:59:35;;;;;;;2.50;2.30;;;;;;;30.89;53.60;98993.06;5056747;28;41919;-84
2023/08/12 10:02:05;;;;;;;2.60;2.40;;;;;;;30.98;52.63;98994.44;5056221;28;41679;-86
2023/08/12 10:04:39;;;;;;;2.30;2.10;;;;;;;31.25;52.48;99005.19;5056090;28;41116;-85
2023/08/12 10:07:08;;;;;;;3.77;2.53;;;;;;;31.49;52.00;99001.56;5056130;28;41898;-85
2023/08/12 10:09:37;;;;;;;2.33;2.23;;;;;;;31.80;51.72;99002.50;5071123;28;43051;-85
2023/08/12 10:12:06;;;;;;;2.67;2.13;;;;;;;32.08;50.28;99013.75;5053547;28;43052;-85
2023/08/12 10:14:35;;;;;;;2.60;2.30;;;;;;;32.80;47.96;99020.97;5054620;28;38650;-85
2023/08/12 10:17:03;;;;;;;4.07;2.70;;;;;;;33.02;48.43;99012.19;5054577;28;41783;-86
2023/08/12 10:19:32;;;;;;;3.33;2.33;;;;;;;33.18;46.80;99006.81;5054872;28;41687;-86
2023/08/12 10:22:00;;;;;;;3.73;2.80;;;;;;;33.29;45.46;99018.91;5054693;28;42497;-85
2023/08/12 10:24:28;;;;;;;2.83;2.63;;;;;;;33.50;46.82;99015.59;5054727;28;39257;-86
2023/08/12 10:26:56;;;;;;;2.60;2.40;;;;;;;33.75;47.43;99012.59;5054019;28;40990;-86
2023/08/12 10:29:25;;;;;;;3.33;2.70;;;;;;;34.03;46.56;99002.72;5054517;28;42988;-85
2023/08/12 10:31:54;;;;;;;3.10;2.70;;;;;;;34.37;45.00;99020.22;5054728;28;41298;-86
2023/08/12 10:34:23;;;;;;;3.20;2.90;;;;;;;34.71;43.11;99032.13;5054870;28;39385;-87
2023/08/12 10:36:56;;;;;;;2.70;2.50;;;;;;;34.73;42.27;99014.28;5054549;28;40587;-86
2023/08/12 10:39:26;;;;;;;3.10;2.80;;;;;;;34.72;42.50;99006.28;5054809;28;41782;-85
2023/08/12 10:41:56;;;;;;;2.83;2.63;;;;;;;34.73;42.17;99016.19;5055676;28;40758;-86
2023/08/12 10:44:28;;;;;;;2.90;2.70;;;;;;;34.65;41.65;99022.09;5072342;28;39777;-86
2023/08/12 10:46:59;;;;;;;3.43;3.13;;;;;;;34.75;41.06;99023.09;5072229;28;40833;-85
2023/08/12 10:49:27;;;;;;;3.10;2.80;;;;;;;34.89;41.68;99016.22;5072128;28;43230;-85
2023/08/12 10:51:55;;;;;;;4.17;2.50;;;;;;;34.98;41.79;99011.16;5054590;28;40943;-85
2023/08/12 10:54:26;;;;;;;3.10;2.37;;;;;;;35.41;41.93;99006.88;5054755;28;40240;-85
2023/08/12 10:57:12;;;;;;;2.60;2.40;;;;;;;35.64;42.29;99004.75;5055497;28;40747;-85
2023/08/12 10:59:54;;;;;;;2.70;2.50;;;;;;;35.78;41.44;99010.75;5056115;28;20223;-85
2023/08/12 11:02:28;;;;;;;2.87;2.67;;;;;;;35.80;40.14;99011.34;5069055;28;43186;-85
2023/08/12 11:04:57;;;;;;;2.70;2.50;;;;;;;35.77;40.65;98989.78;5055562;28;40077;-84
2023/08/12 11:07:34;;;;;;;3.13;2.90;;;;;;;36.30;39.84;98991.00;5054849;28;41926;-86
2023/08/12 11:10:07;;;;;;;3.10;2.80;;;;;;;37.69;39.31;99004.66;5053066;28;42744;-85
2023/08/12 11:12:36;;;;;;;2.60;2.40;;;;;;;38.43;36.11;99025.72;5054016;28;41529;-86
2023/08/12 11:15:05;;;;;;;2.53;2.33;;;;;;;38.20;35.81;99012.38;5053784;28;39230;-85
2023/08/12 11:17:39;;;;;;;3.15;2.83;;;;;;;37.74;35.02;99001.91;5053196;28;42609;-84
2023/08/12 11:20:09;;;;;;;2.50;2.30;;;;;;;37.21;35.58;98997.41;5070515;28;41594;-86
2023/08/12 11:22:38;;;;;;;2.60;2.40;;;;;;;36.90;36.48;98989.94;5053241;28;42334;-84
2023/08/12 11:25:08;;;;;;;3.42;2.45;;;;;;;36.51;36.05;98987.34;5054191;28;38856;-86
2023/08/12 11:27:41;;;;;;;3.13;2.80;;;;;;;36.25;36.99;98988.19;5053733;28;41283;-86
2023/08/12 11:30:10;;;;;;;3.13;2.40;;;;;;;36.11;38.06;98970.34;5070804;28;41825;-86
2023/08/12 11:32:40;;;;;;;3.23;2.37;;;;;;;36.05;39.06;98955.66;5053516;28;42641;-85
2023/08/12 11:35:10;;;;;;;2.50;2.30;;;;;;;36.19;39.66;98945.06;5054009;28;39640;-86
2023/08/12 11:37:39;;;;;;;2.63;2.43;;;;;;;36.27;38.72;98948.22;5053533;28;40460;-86
2023/08/12 11:40:09;;;;;;;2.83;2.50;;;;;;;36.13;37.08;98962.63;5053963;28;41759;-85
2023/08/12 11:42:42;;;;;;;2.27;2.10;;;;;;;36.02;37.43;98947.06;5054559;28;41148;-85